Terminal Aerodrome Forecast
Issued by NWS

Home | Current Version | Previous Version | Text Only | Print | Product List | Glossary On
Versions: 1 2 3 4 5 6 7 8 9 10 11 12 13 14
000
FTUS42 TJSJ 050528
TAFJMZ
TAF
TJMZ 050528Z 0506/0606 VRB06KT P6SM FEW030
     FM051400 27014KT P6SM FEW025 SCT050
     FM052200 08011KT P6SM FEW040
      AMD NOT SKED=

USA.gov is the U.S. government's official web portal to all federal, state and local government web resources and services.